Time;durP1;ratioP1;P1;durP2;ratioP2;P2;SDS_P1;SDS_P2;PMS_P1;PMS_P2;Temp;Humidity;BMP_temperature;BMP_pressure;BME280_temperature;BME280_humidity;BME280_pressure;Samples;Min_cycle;Max_cycle;Signal;HPM_P1;HPM_P2
2021/11/04 00:00:34;;;;;;;0.85;0.73;;;;;;;;;;5112034;28;20023;-46
2021/11/04 00:03:01;;;;;;;2.40;0.82;;;;;;;;;;5113140;28;20011;-46
2021/11/04 00:05:27;;;;;;;1.27;0.70;;;;;;;;;;5111859;28;20367;-46
2021/11/04 00:07:57;;;;;;;1.10;0.82;;;;;;;;;;5112141;28;20020;-47
2021/11/04 00:10:23;;;;;;;1.80;1.00;;;;;;;;;;5110937;28;20521;-46
2021/11/04 00:12:49;;;;;;;1.00;0.65;;;;;;;;;;5111794;28;20042;-46
2021/11/04 00:15:16;;;;;;;3.47;1.52;;;;;;;;;;5111184;28;20412;-48
2021/11/04 00:17:42;;;;;;;1.00;0.80;;;;;;;;;;5112066;28;20094;-48
2021/11/04 00:20:11;;;;;;;1.63;0.82;;;;;;;;;;5111999;28;20099;-47
2021/11/04 00:22:37;;;;;;;1.00;0.90;;;;;;;;;;5124164;28;20053;-47
2021/11/04 00:25:03;;;;;;;1.42;0.90;;;;;;;;;;5132527;28;20558;-48
2021/11/04 00:27:29;;;;;;;0.65;0.50;;;;;;;;;;5131782;28;20019;-46
2021/11/04 00:29:55;;;;;;;1.23;0.80;;;;;;;;;;5132504;28;20367;-48
2021/11/04 00:32:21;;;;;;;0.50;0.40;;;;;;;;;;5131015;28;20478;-46
2021/11/04 00:34:47;;;;;;;1.48;0.93;;;;;;;;;;5115058;27;20034;-47
2021/11/04 00:37:13;;;;;;;0.90;0.50;;;;;;;;;;5135103;27;20038;-54
2021/11/04 00:39:39;;;;;;;0.82;0.80;;;;;;;;;;5135783;27;20034;-46
2021/11/04 00:42:05;;;;;;;1.00;0.70;;;;;;;;;;5135587;27;20019;-46
2021/11/04 00:44:31;;;;;;;0.93;0.63;;;;;;;;;;5134753;27;20542;-47
2021/11/04 00:46:58;;;;;;;0.70;0.63;;;;;;;;;;5135313;27;20026;-46
2021/11/04 00:49:24;;;;;;;0.73;0.60;;;;;;;;;;5135014;27;20022;-46
2021/11/04 00:51:51;;;;;;;1.50;0.90;;;;;;;;;;5135709;27;20011;-46
2021/11/04 00:54:17;;;;;;;0.77;0.70;;;;;;;;;;5134943;27;20114;-48
2021/11/04 00:56:43;;;;;;;1.38;0.70;;;;;;;;;;5135165;27;20054;-47
2021/11/04 00:59:09;;;;;;;0.57;0.52;;;;;;;;;;5135532;27;20404;-46
2021/11/04 01:01:35;;;;;;;1.17;0.65;;;;;;;;;;5135128;27;20090;-46
2021/11/04 01:04:01;;;;;;;0.70;0.57;;;;;;;;;;5117177;27;20054;-48
2021/11/04 01:06:27;;;;;;;0.60;0.57;;;;;;;;;;5134299;27;20023;-47
2021/11/04 01:08:53;;;;;;;0.95;0.70;;;;;;;;;;5135450;27;20023;-46
2021/11/04 01:11:20;;;;;;;0.65;0.55;;;;;;;;;;5134424;27;20448;-46
2021/11/04 01:13:47;;;;;;;0.70;0.45;;;;;;;;;;5135293;27;20106;-47
2021/11/04 01:16:13;;;;;;;1.00;0.70;;;;;;;;;;5135110;27;20011;-54
2021/11/04 01:18:39;;;;;;;0.80;0.63;;;;;;;;;;5134424;27;20064;-47
2021/11/04 01:21:05;;;;;;;0.88;0.52;;;;;;;;;;5135032;27;20015;-48
2021/11/04 01:23:31;;;;;;;1.10;0.77;;;;;;;;;;5113583;28;20064;-47
2021/11/04 01:25:57;;;;;;;0.82;0.65;;;;;;;;;;5096126;28;20030;-47
2021/11/04 01:28:24;;;;;;;1.23;0.70;;;;;;;;;;5113697;28;20075;-48
2021/11/04 01:30:50;;;;;;;0.70;0.50;;;;;;;;;;5114759;28;20061;-47
2021/11/04 01:33:16;;;;;;;0.50;0.47;;;;;;;;;;5113381;28;20046;-55
2021/11/04 01:35:42;;;;;;;0.93;0.70;;;;;;;;;;5113697;28;20485;-46
2021/11/04 01:38:08;;;;;;;1.23;0.60;;;;;;;;;;5114370;28;20015;-47
2021/11/04 01:40:35;;;;;;;0.47;0.45;;;;;;;;;;5113560;28;20030;-51
2021/11/04 01:43:01;;;;;;;0.90;0.70;;;;;;;;;;5113875;28;20501;-46
2021/11/04 01:45:27;;;;;;;0.63;0.32;;;;;;;;;;5113187;28;20035;-46
2021/11/04 01:47:54;;;;;;;0.63;0.60;;;;;;;;;;5094840;28;20016;-46
2021/11/04 01:50:22;;;;;;;1.17;0.60;;;;;;;;;;5113326;28;20360;-47
2021/11/04 01:52:48;;;;;;;0.85;0.50;;;;;;;;;;5113946;28;20020;-46
2021/11/04 01:55:15;;;;;;;0.55;0.50;;;;;;;;;;5113875;28;20028;-50
2021/11/04 01:57:41;;;;;;;3.33;1.00;;;;;;;;;;5113212;28;20032;-46
2021/11/04 02:00:08;;;;;;;0.90;0.68;;;;;;;;;;5113426;28;20030;-46
2021/11/04 02:02:36;;;;;;;1.33;0.60;;;;;;;;;;5112559;28;20015;-46
2021/11/04 02:05:05;;;;;;;0.70;0.55;;;;;;;;;;5113637;28;20028;-46
2021/11/04 02:07:51;;;;;;;0.60;0.50;;;;;;;;;;5113051;28;20074;-46
2021/11/04 02:10:25;;;;;;;0.43;0.40;;;;;;;;;;5113584;28;20077;-57
2021/11/04 02:12:54;;;;;;;0.88;0.52;;;;;;;;;;5113570;28;20018;-46
2021/11/04 02:15:21;;;;;;;1.20;0.90;;;;;;;;;;5112784;28;20094;-47
2021/11/04 02:17:48;;;;;;;0.70;0.60;;;;;;;;;;5113461;28;20015;-46
2021/11/04 02:20:23;;;;;;;0.85;0.50;;;;;;;;;;5113243;28;20090;-47
2021/11/04 02:23:03;;;;;;;0.50;0.50;;;;;;;;;;5128106;27;20007;-47
2021/11/04 02:25:31;;;;;;;0.60;0.47;;;;;;;;;;5133179;27;20122;-48
2021/11/04 02:27:58;;;;;;;1.08;0.60;;;;;;;;;;5133783;27;20103;-47
2021/11/04 02:30:25;;;;;;;0.55;0.40;;;;;;;;;;5133030;27;20016;-47
2021/11/04 02:32:52;;;;;;;0.88;0.60;;;;;;;;;;5133398;27;20361;-46
2021/11/04 02:35:19;;;;;;;1.20;0.85;;;;;;;;;;5133073;27;20088;-54
2021/11/04 02:37:45;;;;;;;0.50;0.40;;;;;;;;;;5133834;27;20037;-47
2021/11/04 02:40:11;;;;;;;1.48;0.52;;;;;;;;;;5133908;27;20015;-47
2021/11/04 02:42:38;;;;;;;0.40;0.40;;;;;;;;;;5133130;27;20059;-46
2021/11/04 02:45:05;;;;;;;1.42;0.47;;;;;;;;;;5133425;27;20031;-46
2021/11/04 02:47:31;;;;;;;0.40;0.40;;;;;;;;;;5132545;27;20042;-47
2021/11/04 02:49:57;;;;;;;0.40;0.38;;;;;;;;;;5133168;27;20037;-47
2021/11/04 02:52:24;;;;;;;0.40;0.38;;;;;;;;;;5132795;27;20020;-47
2021/11/04 02:54:51;;;;;;;0.77;0.38;;;;;;;;;;5133486;27;20356;-47
2021/11/04 02:57:17;;;;;;;2.45;1.25;;;;;;;;;;5133261;27;20015;-55
2021/11/04 02:59:43;;;;;;;0.30;0.30;;;;;;;;;;5132755;27;20105;-48
2021/11/04 03:02:09;;;;;;;0.50;0.40;;;;;;;;;;5132884;27;20107;-47
2021/11/04 03:04:35;;;;;;;0.52;0.32;;;;;;;;;;5129496;27;20051;-47
2021/11/04 03:07:01;;;;;;;0.82;0.40;;;;;;;;;;5123261;27;20338;-46
2021/11/04 03:09:27;;;;;;;0.85;0.73;;;;;;;;;;5121621;27;20047;-47
2021/11/04 03:11:53;;;;;;;0.85;0.32;;;;;;;;;;5119656;27;20012;-47
2021/11/04 03:14:19;;;;;;;0.40;0.40;;;;;;;;;;5121946;27;20060;-54
2021/11/04 03:16:46;;;;;;;0.98;0.57;;;;;;;;;;5119369;27;20011;-47
2021/11/04 03:19:13;;;;;;;0.80;0.50;;;;;;;;;;5121627;27;20012;-49
2021/11/04 03:21:42;;;;;;;0.57;0.40;;;;;;;;;;5120120;28;20091;-49
2021/11/04 03:24:08;;;;;;;0.40;0.40;;;;;;;;;;5122346;28;20471;-48
2021/11/04 03:26:36;;;;;;;0.30;0.30;;;;;;;;;;5120080;28;20098;-47
2021/11/04 03:29:03;;;;;;;0.30;0.30;;;;;;;;;;5119941;28;20020;-48
2021/11/04 03:31:29;;;;;;;0.68;0.50;;;;;;;;;;5121453;28;20364;-47
2021/11/04 03:33:55;;;;;;;0.68;0.60;;;;;;;;;;5121846;28;20168;-47
2021/11/04 03:36:23;;;;;;;1.38;0.30;;;;;;;;;;5121001;28;20031;-47
2021/11/04 03:38:49;;;;;;;0.60;0.30;;;;;;;;;;5121194;28;20016;-46
2021/11/04 03:41:17;;;;;;;0.38;0.35;;;;;;;;;;5120446;28;20404;-46
2021/11/04 03:43:44;;;;;;;0.52;0.43;;;;;;;;;;5119572;28;20042;-47
2021/11/04 03:46:10;;;;;;;0.32;0.32;;;;;;;;;;5121351;28;20023;-48
2021/11/04 03:48:37;;;;;;;0.55;0.30;;;;;;;;;;5120784;28;20032;-46
2021/11/04 03:51:04;;;;;;;0.70;0.30;;;;;;;;;;5119824;28;20011;-47
2021/11/04 03:53:30;;;;;;;0.35;0.30;;;;;;;;;;5121065;28;20739;-48
2021/11/04 03:55:56;;;;;;;0.45;0.32;;;;;;;;;;5121655;28;20028;-46
2021/11/04 03:58:24;;;;;;;0.35;0.30;;;;;;;;;;5118907;28;20095;-46
2021/11/04 04:00:53;;;;;;;0.38;0.30;;;;;;;;;;5120604;28;20035;-49
2021/11/04 04:03:20;;;;;;;0.82;0.30;;;;;;;;;;5119416;28;20019;-54
2021/11/04 04:05:57;;;;;;;0.85;0.63;;;;;;;;;;5119826;28;20015;-47
2021/11/04 04:08:23;;;;;;;0.73;0.20;;;;;;;;;;5118340;28;20056;-47
2021/11/04 04:10:49;;;;;;;0.85;0.40;;;;;;;;;;5123450;27;20007;-48
2021/11/04 04:13:15;;;;;;;0.70;0.40;;;;;;;;;;5124046;27;20011;-46
2021/11/04 04:15:41;;;;;;;0.38;0.38;;;;;;;;;;5125128;27;20030;-46
2021/11/04 04:18:07;;;;;;;0.30;0.30;;;;;;;;;;5127126;27;20020;-46
2021/11/04 04:20:33;;;;;;;0.30;0.30;;;;;;;;;;5123718;27;20023;-49
2021/11/04 04:23:00;;;;;;;0.30;0.30;;;;;;;;;;5125310;27;20475;-49
2021/11/04 04:25:26;;;;;;;3.85;0.85;;;;;;;;;;5122480;27;20041;-49
2021/11/04 04:27:52;;;;;;;0.40;0.38;;;;;;;;;;5106255;27;20018;-47
2021/11/04 04:30:18;;;;;;;0.32;0.30;;;;;;;;;;5123351;27;20015;-54
2021/11/04 04:32:44;;;;;;;0.30;0.20;;;;;;;;;;5124734;27;20042;-47
2021/11/04 04:35:10;;;;;;;0.55;0.40;;;;;;;;;;5125761;27;20024;-48
2021/11/04 04:37:36;;;;;;;0.35;0.30;;;;;;;;;;5123823;27;20359;-46
2021/11/04 04:40:02;;;;;;;0.22;0.20;;;;;;;;;;5123156;27;20015;-47
2021/11/04 04:42:28;;;;;;;0.17;0.17;;;;;;;;;;5124455;27;20011;-47
2021/11/04 04:44:54;;;;;;;0.20;0.20;;;;;;;;;;5124393;27;20389;-47
2021/11/04 04:47:20;;;;;;;0.20;0.20;;;;;;;;;;5104719;27;20031;-54
2021/11/04 04:49:46;;;;;;;0.30;0.30;;;;;;;;;;5124717;27;20011;-47
2021/11/04 04:52:12;;;;;;;0.40;0.30;;;;;;;;;;5123798;27;20020;-47
2021/11/04 04:54:38;;;;;;;0.30;0.30;;;;;;;;;;5123024;27;20026;-47
2021/11/04 04:57:04;;;;;;;0.30;0.30;;;;;;;;;;5125478;27;20094;-47
2021/11/04 04:59:30;;;;;;;0.30;0.30;;;;;;;;;;5121830;27;20107;-50
2021/11/04 05:01:56;;;;;;;0.43;0.30;;;;;;;;;;5124388;27;20011;-47
2021/11/04 05:04:22;;;;;;;0.35;0.20;;;;;;;;;;5124329;27;20019;-54
2021/11/04 05:06:48;;;;;;;0.43;0.22;;;;;;;;;;5123079;27;20086;-46
2021/11/04 05:09:15;;;;;;;0.25;0.20;;;;;;;;;;5123425;27;20044;-46
2021/11/04 05:11:41;;;;;;;0.30;0.30;;;;;;;;;;5121028;27;20286;-51
2021/11/04 05:14:07;;;;;;;0.20;0.20;;;;;;;;;;5124488;27;20027;-48
2021/11/04 05:16:33;;;;;;;1.05;0.85;;;;;;;;;;5119539;27;20457;-46
2021/11/04 05:18:59;;;;;;;1.10;0.40;;;;;;;;;;5122762;27;20011;-47
2021/11/04 05:21:25;;;;;;;0.52;0.40;;;;;;;;;;5121322;27;20526;-48
2021/11/04 05:23:51;;;;;;;0.55;0.30;;;;;;;;;;5104877;27;20426;-48
2021/11/04 05:26:17;;;;;;;0.85;0.50;;;;;;;;;;5104086;27;20401;-47
2021/11/04 05:28:43;;;;;;;0.80;0.50;;;;;;;;;;5114049;28;20032;-47
2021/11/04 05:31:09;;;;;;;0.52;0.40;;;;;;;;;;5114117;28;20016;-47
2021/11/04 05:33:35;;;;;;;0.32;0.30;;;;;;;;;;5113570;28;20026;-47
2021/11/04 05:36:01;;;;;;;0.75;0.30;;;;;;;;;;5114203;28;20032;-47
2021/11/04 05:38:27;;;;;;;1.00;0.40;;;;;;;;;;5113406;28;20027;-47
2021/11/04 05:40:53;;;;;;;0.60;0.32;;;;;;;;;;5114929;28;20023;-48
2021/11/04 05:43:19;;;;;;;0.80;0.47;;;;;;;;;;5114010;28;20023;-53
2021/11/04 05:45:45;;;;;;;0.45;0.40;;;;;;;;;;5111845;28;20027;-47
2021/11/04 05:48:11;;;;;;;0.73;0.30;;;;;;;;;;5113914;28;20483;-46
2021/11/04 05:50:37;;;;;;;0.95;0.30;;;;;;;;;;5113159;28;20028;-46
2021/11/04 05:53:03;;;;;;;0.95;0.50;;;;;;;;;;5113951;28;20468;-47
2021/11/04 05:55:29;;;;;;;0.32;0.30;;;;;;;;;;5113050;28;20019;-47
2021/11/04 05:57:57;;;;;;;0.60;0.52;;;;;;;;;;5113708;28;20020;-47
2021/11/04 06:00:23;;;;;;;1.33;0.70;;;;;;;;;;5113545;28;20072;-54
2021/11/04 06:02:49;;;;;;;0.40;0.35;;;;;;;;;;5113631;28;20023;-47
2021/11/04 06:05:15;;;;;;;0.65;0.57;;;;;;;;;;5113278;28;20028;-46
2021/11/04 06:07:41;;;;;;;1.05;0.40;;;;;;;;;;5112911;28;20046;-47
2021/11/04 06:10:07;;;;;;;0.85;0.40;;;;;;;;;;5113321;28;20395;-46
2021/11/04 06:12:33;;;;;;;0.52;0.45;;;;;;;;;;5112455;28;20507;-47
2021/11/04 06:14:59;;;;;;;0.90;0.30;;;;;;;;;;5113028;28;20491;-47
2021/11/04 06:17:25;;;;;;;0.63;0.63;;;;;;;;;;5112574;28;20023;-47
2021/11/04 06:19:51;;;;;;;1.30;0.30;;;;;;;;;;5113568;28;20023;-47
2021/11/04 06:22:17;;;;;;;0.30;0.30;;;;;;;;;;5113295;28;20024;-47
2021/11/04 06:24:43;;;;;;;0.30;0.30;;;;;;;;;;5112407;28;20502;-48
2021/11/04 06:27:09;;;;;;;0.40;0.35;;;;;;;;;;5094674;28;20027;-50
2021/11/04 06:29:35;;;;;;;1.58;0.52;;;;;;;;;;5112489;28;20384;-48
2021/11/04 06:32:01;;;;;;;3.83;0.50;;;;;;;;;;5127513;27;20019;-47
2021/11/04 06:34:27;;;;;;;1.92;0.32;;;;;;;;;;5133150;27;20020;-47
2021/11/04 06:36:53;;;;;;;5.75;0.98;;;;;;;;;;5125251;27;20058;-52
2021/11/04 06:39:19;;;;;;;5.20;0.73;;;;;;;;;;5122682;27;20043;-47
2021/11/04 06:41:46;;;;;;;1.73;0.40;;;;;;;;;;5129049;27;20505;-48
2021/11/04 06:44:12;;;;;;;2.88;0.40;;;;;;;;;;5111470;28;20028;-50
2021/11/04 06:46:39;;;;;;;3.15;0.47;;;;;;;;;;5111701;28;20024;-53
2021/11/04 06:49:09;;;;;;;3.58;0.50;;;;;;;;;;5114562;28;20492;-46
2021/11/04 06:51:41;;;;;;;2.45;0.40;;;;;;;;;;5110966;28;20023;-50
2021/11/04 06:54:06;;;;;;;;;;;;;;;;;;5129320;27;20415;-47
2021/11/04 06:56:40;;;;;;;1.38;0.40;;;;;;;;;;5132567;27;19957;-53
2021/11/04 06:59:13;;;;;;;3.10;0.60;;;;;;;;;;5139899;27;20356;-46
2021/11/04 07:01:39;;;;;;;0.57;0.40;;;;;;;;;;5106327;27;20018;-45
2021/11/04 07:04:11;;;;;;;1.30;0.60;;;;;;;;;;5114701;28;20027;-45
2021/11/04 07:06:45;;;;;;;4.93;0.65;;;;;;;;;;5112308;28;20484;-45
2021/11/04 07:09:11;;;;;;;2.95;0.50;;;;;;;;;;5112390;28;20016;-46
2021/11/04 07:11:37;;;;;;;0.77;0.30;;;;;;;;;;5111563;28;20349;-49
2021/11/04 07:14:03;;;;;;;1.35;0.55;;;;;;;;;;5112335;28;20019;-47
2021/11/04 07:16:38;;;;;;;2.28;0.60;;;;;;;;;;5113910;28;20016;-54
2021/11/04 07:19:04;;;;;;;1.67;0.90;;;;;;;;;;5112727;28;20047;-46
2021/11/04 07:21:43;;;;;;;3.85;0.40;;;;;;;;;;5111646;28;20064;-46
2021/11/04 07:24:10;;;;;;;0.60;0.40;;;;;;;;;;5110813;28;20110;-45
2021/11/04 07:26:38;;;;;;;1.05;0.45;;;;;;;;;;5112747;28;20519;-45
2021/11/04 07:29:05;;;;;;;1.75;0.38;;;;;;;;;;5118057;28;20024;-46
2021/11/04 07:31:34;;;;;;;1.65;0.40;;;;;;;;;;5123256;28;20026;-46
2021/11/04 07:34:02;;;;;;;2.40;0.50;;;;;;;;;;5121350;28;20580;-46
2021/11/04 07:36:28;;;;;;;1.63;0.40;;;;;;;;;;5110150;28;20429;-54
2021/11/04 07:38:55;;;;;;;2.05;0.50;;;;;;;;;;5122130;28;20015;-46
2021/11/04 07:41:21;;;;;;;1.05;0.52;;;;;;;;;;5122566;28;20024;-48
2021/11/04 07:43:48;;;;;;;3.05;0.47;;;;;;;;;;5124466;28;20028;-45
2021/11/04 07:46:14;;;;;;;0.80;0.43;;;;;;;;;;5129905;27;20043;-43
2021/11/04 07:48:42;;;;;;;1.73;0.47;;;;;;;;;;5123259;27;20473;-46
2021/11/04 07:51:08;;;;;;;1.08;0.70;;;;;;;;;;5122680;27;20019;-47
2021/11/04 07:53:34;;;;;;;3.60;0.88;;;;;;;;;;5114944;28;20015;-46
2021/11/04 07:56:00;;;;;;;1.20;0.55;;;;;;;;;;5129659;27;20072;-47
2021/11/04 07:58:26;;;;;;;1.95;0.40;;;;;;;;;;5128386;27;20337;-55
2021/11/04 08:00:52;;;;;;;4.22;0.50;;;;;;;;;;5121951;27;20095;-45
2021/11/04 08:03:18;;;;;;;3.35;0.40;;;;;;;;;;5115594;27;20020;-46
2021/11/04 08:05:45;;;;;;;2.25;0.43;;;;;;;;;;5114461;28;20181;-45
2021/11/04 08:08:11;;;;;;;1.85;0.40;;;;;;;;;;5115264;28;20015;-45
2021/11/04 08:10:37;;;;;;;8.23;1.15;;;;;;;;;;5115592;27;20034;-46
2021/11/04 08:13:07;;;;;;;1.00;0.50;;;;;;;;;;5114421;28;20045;-46
2021/11/04 08:15:34;;;;;;;0.75;0.30;;;;;;;;;;5116785;27;20110;-45
2021/11/04 08:18:00;;;;;;;0.45;0.40;;;;;;;;;;5115890;27;20111;-52
2021/11/04 08:20:27;;;;;;;0.73;0.43;;;;;;;;;;5125032;27;20019;-46
2021/11/04 08:22:53;;;;;;;0.55;0.30;;;;;;;;;;5113999;28;20043;-47
2021/11/04 08:25:19;;;;;;;0.90;0.50;;;;;;;;;;5114743;28;20028;-46
2021/11/04 08:27:45;;;;;;;1.58;0.52;;;;;;;;;;5114066;28;20203;-46
2021/11/04 08:30:15;;;;;;;2.80;0.60;;;;;;;;;;5114585;28;20018;-46
2021/11/04 08:32:42;;;;;;;0.45;0.30;;;;;;;;;;5112308;28;20016;-46
2021/11/04 08:35:08;;;;;;;2.17;0.80;;;;;;;;;;5114928;28;20019;-47
2021/11/04 08:37:34;;;;;;;2.53;0.60;;;;;;;;;;5114692;28;20019;-46
2021/11/04 08:40:00;;;;;;;0.85;0.40;;;;;;;;;;5115190;28;20027;-46
2021/11/04 08:42:26;;;;;;;2.10;0.30;;;;;;;;;;5115089;28;20030;-54
2021/11/04 08:44:55;;;;;;;1.08;0.47;;;;;;;;;;5114800;28;20027;-46
2021/11/04 08:47:22;;;;;;;2.75;0.77;;;;;;;;;;5115205;28;20471;-48
2021/11/04 08:49:48;;;;;;;5.72;0.60;;;;;;;;;;5114414;28;20027;-46
2021/11/04 08:52:14;;;;;;;0.88;0.50;;;;;;;;;;5114392;28;20456;-48
2021/11/04 08:54:41;;;;;;;0.63;0.40;;;;;;;;;;5114143;28;20030;-47
2021/11/04 08:57:08;;;;;;;1.23;0.57;;;;;;;;;;5114634;28;20106;-47
2021/11/04 08:59:34;;;;;;;0.50;0.40;;;;;;;;;;5114170;28;20073;-48
2021/11/04 09:02:00;;;;;;;0.98;0.35;;;;;;;;;;5115014;28;20356;-46
2021/11/04 09:04:28;;;;;;;2.85;0.40;;;;;;;;;;5114854;28;20028;-55
2021/11/04 09:06:54;;;;;;;1.67;0.40;;;;;;;;;;5114713;28;20076;-46
2021/11/04 09:09:20;;;;;;;0.77;0.30;;;;;;;;;;5114888;28;20068;-46
2021/11/04 09:11:46;;;;;;;2.50;0.50;;;;;;;;;;5113856;28;20011;-49
2021/11/04 09:14:13;;;;;;;1.15;0.50;;;;;;;;;;5114449;28;20020;-46
2021/11/04 09:16:39;;;;;;;3.03;0.93;;;;;;;;;;5113629;28;20459;-47
2021/11/04 09:19:05;;;;;;;1.83;0.40;;;;;;;;;;5113318;27;20019;-47
2021/11/04 09:21:31;;;;;;;2.50;0.85;;;;;;;;;;5114115;28;20460;-51
2021/11/04 09:23:58;;;;;;;2.78;0.82;;;;;;;;;;5114381;28;20165;-46
2021/11/04 09:26:24;;;;;;;3.25;0.90;;;;;;;;;;5115101;27;20022;-47
2021/11/04 09:28:50;;;;;;;2.38;0.77;;;;;;;;;;5113302;28;20577;-47
2021/11/04 09:31:16;;;;;;;1.58;0.90;;;;;;;;;;5112177;28;20479;-50
2021/11/04 09:33:42;;;;;;;1.77;0.40;;;;;;;;;;5112435;28;20476;-48
2021/11/04 09:36:08;;;;;;;1.60;0.60;;;;;;;;;;5117376;27;20039;-49
2021/11/04 09:38:36;;;;;;;4.55;1.45;;;;;;;;;;5133558;27;20019;-48
2021/11/04 09:41:02;;;;;;;1.92;0.60;;;;;;;;;;5122244;27;20099;-50
2021/11/04 09:43:33;;;;;;;1.17;0.50;;;;;;;;;;5113198;28;20126;-52
2021/11/04 09:46:03;;;;;;;3.37;0.80;;;;;;;;;;5130710;27;20110;-48
2021/11/04 09:48:36;;;;;;;3.60;0.70;;;;;;;;;;5114458;27;20027;-50
2021/11/04 09:51:03;;;;;;;1.70;0.80;;;;;;;;;;5094810;28;20011;-49
2021/11/04 09:53:29;;;;;;;5.30;1.10;;;;;;;;;;5113974;28;20025;-54
2021/11/04 09:55:56;;;;;;;1.65;0.70;;;;;;;;;;5095692;28;20369;-47
2021/11/04 09:58:22;;;;;;;2.45;0.63;;;;;;;;;;5113612;28;20019;-48
2021/11/04 10:00:48;;;;;;;2.75;0.40;;;;;;;;;;5105673;27;21071;-48
2021/11/04 10:03:15;;;;;;;1.58;0.60;;;;;;;;;;5113127;27;20373;-48
2021/11/04 10:05:51;;;;;;;0.95;0.70;;;;;;;;;;5113716;28;20027;-48
2021/11/04 10:08:33;;;;;;;2.40;0.68;;;;;;;;;;5112976;28;20019;-48
2021/11/04 10:11:06;;;;;;;2.83;0.65;;;;;;;;;;5113717;28;20390;-48
2021/11/04 10:13:32;;;;;;;2.72;0.75;;;;;;;;;;5112827;28;20055;-54
2021/11/04 10:15:59;;;;;;;2.35;0.80;;;;;;;;;;5113068;28;20019;-49
2021/11/04 10:18:25;;;;;;;1.35;0.60;;;;;;;;;;5113411;28;20016;-48
2021/11/04 10:20:59;;;;;;;2.20;0.63;;;;;;;;;;5112517;28;20023;-48
2021/11/04 10:23:27;;;;;;;28.73;1.35;;;;;;;;;;5113156;28;20019;-48
2021/11/04 10:26:04;;;;;;;1.90;0.60;;;;;;;;;;5112312;28;20044;-48
2021/11/04 10:28:31;;;;;;;0.65;0.60;;;;;;;;;;5112747;28;20392;-53
2021/11/04 10:30:58;;;;;;;1.70;0.40;;;;;;;;;;5118852;27;20036;-47
2021/11/04 10:33:25;;;;;;;1.65;0.60;;;;;;;;;;5133754;27;20015;-48
2021/11/04 10:36:12;;;;;;;1.25;0.50;;;;;;;;;;5132689;27;20071;-49
2021/11/04 10:38:43;;;;;;;1.70;0.50;;;;;;;;;;5132933;27;20050;-48
2021/11/04 10:41:11;;;;;;;0.68;0.50;;;;;;;;;;5133001;27;20011;-49
2021/11/04 10:43:39;;;;;;;0.90;0.40;;;;;;;;;;5132820;27;20080;-50
2021/11/04 10:46:12;;;;;;;2.63;0.40;;;;;;;;;;5132805;27;20035;-49
2021/11/04 10:48:41;;;;;;;1.55;0.90;;;;;;;;;;5132830;27;20048;-51
2021/11/04 10:51:11;;;;;;;1.42;0.60;;;;;;;;;;5133303;27;20094;-49
2021/11/04 10:53:37;;;;;;;1.63;0.52;;;;;;;;;;5132373;27;20102;-50
2021/11/04 10:56:13;;;;;;;0.73;0.57;;;;;;;;;;5132899;27;20107;-49
2021/11/04 10:58:39;;;;;;;0.70;0.47;;;;;;;;;;5132571;27;20460;-49
2021/11/04 11:01:05;;;;;;;0.80;0.50;;;;;;;;;;5123431;27;20026;-49
2021/11/04 11:03:32;;;;;;;2.08;0.50;;;;;;;;;;5112557;28;20128;-55
2021/11/04 11:05:59;;;;;;;0.55;0.40;;;;;;;;;;5111803;28;20046;-51
2021/11/04 11:08:26;;;;;;;1.15;0.70;;;;;;;;;;5112486;28;20103;-49
2021/11/04 11:10:52;;;;;;;2.20;0.88;;;;;;;;;;5111800;28;20502;-50
2021/11/04 11:13:19;;;;;;;0.73;0.45;;;;;;;;;;5112688;28;20065;-49
2021/11/04 11:15:49;;;;;;;2.22;0.50;;;;;;;;;;5111524;28;20020;-49
2021/11/04 11:18:17;;;;;;;1.10;0.70;;;;;;;;;;5112466;28;20030;-48
2021/11/04 11:20:44;;;;;;;2.45;0.57;;;;;;;;;;5111237;28;20124;-49
2021/11/04 11:23:15;;;;;;;1.85;0.50;;;;;;;;;;5112053;28;20020;-49
2021/11/04 11:25:41;;;;;;;1.60;0.80;;;;;;;;;;5111376;28;20080;-49
2021/11/04 11:28:08;;;;;;;0.60;0.60;;;;;;;;;;5112539;28;20059;-49
2021/11/04 11:30:36;;;;;;;1.05;0.80;;;;;;;;;;5114200;28;20023;-55
2021/11/04 11:33:18;;;;;;;2.28;0.60;;;;;;;;;;5132587;28;20020;-49
2021/11/04 11:36:04;;;;;;;1.90;0.40;;;;;;;;;;5131947;28;20043;-50
2021/11/04 11:38:30;;;;;;;0.40;0.32;;;;;;;;;;5132384;28;20011;-49
2021/11/04 11:41:05;;;;;;;0.88;0.47;;;;;;;;;;5131895;28;20023;-49
2021/11/04 11:43:50;;;;;;;3.65;0.65;;;;;;;;;;5132628;28;20359;-49
2021/11/04 11:46:16;;;;;;;0.50;0.35;;;;;;;;;;5132232;28;20076;-49
2021/11/04 11:48:42;;;;;;;3.22;0.40;;;;;;;;;;5131831;28;20067;-49
2021/11/04 11:51:08;;;;;;;1.00;0.60;;;;;;;;;;5133054;28;20461;-49
2021/11/04 11:53:40;;;;;;;7.32;1.00;;;;;;;;;;5132919;28;20054;-55
2021/11/04 11:56:07;;;;;;;0.52;0.50;;;;;;;;;;5132353;28;20033;-51
2021/11/04 11:58:43;;;;;;;0.70;0.43;;;;;;;;;;5132388;28;20011;-54
2021/11/04 12:01:11;;;;;;;0.90;0.60;;;;;;;;;;5123721;28;20468;-52
2021/11/04 12:03:38;;;;;;;0.85;0.55;;;;;;;;;;5111242;28;20058;-50
2021/11/04 12:06:04;;;;;;;2.65;0.50;;;;;;;;;;5111966;28;20019;-52
2021/11/04 12:08:30;;;;;;;1.63;0.70;;;;;;;;;;5111691;28;20456;-49
2021/11/04 12:10:56;;;;;;;2.35;0.50;;;;;;;;;;5110992;28;20038;-51
2021/11/04 12:13:39;;;;;;;0.60;0.60;;;;;;;;;;5111683;28;20016;-51
2021/11/04 12:16:25;;;;;;;0.88;0.60;;;;;;;;;;5111948;28;20051;-49
2021/11/04 12:18:52;;;;;;;0.32;0.30;;;;;;;;;;5111218;28;20027;-51
2021/11/04 12:21:19;;;;;;;1.98;1.08;;;;;;;;;;5111708;28;20007;-55
2021/11/04 12:23:46;;;;;;;1.02;0.50;;;;;;;;;;5111420;28;20387;-49
2021/11/04 12:26:12;;;;;;;0.73;0.45;;;;;;;;;;5111954;28;20031;-48
2021/11/04 12:28:45;;;;;;;0.57;0.40;;;;;;;;;;5110819;28;20054;-48
2021/11/04 12:31:18;;;;;;;0.65;0.43;;;;;;;;;;5113369;28;20016;-48
2021/11/04 12:33:44;;;;;;;1.15;0.55;;;;;;;;;;5114455;28;20404;-49
2021/11/04 12:36:10;;;;;;;1.95;0.50;;;;;;;;;;5115289;28;20070;-48
2021/11/04 12:38:44;;;;;;;1.20;0.80;;;;;;;;;;5114753;28;20020;-46
2021/11/04 12:41:17;;;;;;;3.22;1.17;;;;;;;;;;5115495;28;20064;-51
2021/11/04 12:43:44;;;;;;;2.22;0.70;;;;;;;;;;5115149;28;20048;-48
2021/11/04 12:46:13;;;;;;;0.68;0.63;;;;;;;;;;5115406;28;20521;-47
2021/11/04 12:48:47;;;;;;;0.85;0.65;;;;;;;;;;5114688;28;20023;-47
2021/11/04 12:51:14;;;;;;;1.08;0.60;;;;;;;;;;5115625;28;20016;-47
2021/11/04 12:53:57;;;;;;;0.77;0.77;;;;;;;;;;5114961;28;20064;-47
2021/11/04 12:56:38;;;;;;;0.85;0.68;;;;;;;;;;5115544;28;20019;-47
2021/11/04 12:59:05;;;;;;;0.65;0.47;;;;;;;;;;5115405;28;20020;-50
2021/11/04 13:01:31;;;;;;;1.48;0.60;;;;;;;;;;5126055;27;20512;-49
2021/11/04 13:03:57;;;;;;;1.05;0.57;;;;;;;;;;5134807;27;20370;-50
2021/11/04 13:06:23;;;;;;;1.60;0.65;;;;;;;;;;5135506;27;20467;-49
2021/11/04 13:08:50;;;;;;;0.77;0.47;;;;;;;;;;5135124;27;20413;-49
2021/11/04 13:11:18;;;;;;;1.25;0.50;;;;;;;;;;5135828;27;20084;-50
2021/11/04 13:13:47;;;;;;;1.55;0.43;;;;;;;;;;5135134;27;20018;-51
2021/11/04 13:16:20;;;;;;;0.95;0.45;;;;;;;;;;5135756;27;20079;-49
2021/11/04 13:18:46;;;;;;;0.60;0.50;;;;;;;;;;5134497;27;20405;-53
2021/11/04 13:21:19;;;;;;;0.60;0.50;;;;;;;;;;5134658;27;20030;-55
2021/11/04 13:23:45;;;;;;;1.27;0.60;;;;;;;;;;5114189;28;20433;-56
2021/11/04 13:26:11;;;;;;;1.38;0.60;;;;;;;;;;5114627;28;20032;-52
2021/11/04 13:28:38;;;;;;;0.80;0.50;;;;;;;;;;5114087;28;20066;-50
2021/11/04 13:31:14;;;;;;;1.02;0.40;;;;;;;;;;5114653;28;20011;-50
2021/11/04 13:33:47;;;;;;;0.90;0.52;;;;;;;;;;5114048;28;20019;-50
2021/11/04 13:36:17;;;;;;;4.10;0.70;;;;;;;;;;5114689;28;20100;-53
2021/11/04 13:38:59;;;;;;;0.70;0.68;;;;;;;;;;5113983;28;20417;-51
2021/11/04 13:41:25;;;;;;;;;;;;;;;;;;5114753;28;20016;-50
2021/11/04 13:43:52;;;;;;;1.13;0.73;;;;;;;;;;5112707;28;20260;-54
2021/11/04 13:46:20;;;;;;;0.75;0.57;;;;;;;;;;5114561;28;20149;-56
2021/11/04 13:48:50;;;;;;;4.90;0.77;;;;;;;;;;5113604;28;20051;-55
2021/11/04 13:51:25;;;;;;;1.27;0.80;;;;;;;;;;5114549;28;20020;-51
2021/11/04 13:53:51;;;;;;;0.80;0.75;;;;;;;;;;5113689;28;20024;-58
2021/11/04 13:56:17;;;;;;;3.03;0.80;;;;;;;;;;5114618;28;20081;-56
2021/11/04 13:58:44;;;;;;;1.65;0.60;;;;;;;;;;5113563;28;20031;-58
2021/11/04 14:01:10;;;;;;;0.82;0.70;;;;;;;;;;5121497;27;20011;-57
2021/11/04 14:03:36;;;;;;;1.95;0.55;;;;;;;;;;5133507;27;20015;-57
2021/11/04 14:06:03;;;;;;;2.85;0.98;;;;;;;;;;5134572;27;20037;-58
2021/11/04 14:08:43;;;;;;;0.45;0.45;;;;;;;;;;5134621;27;20029;-57
2021/11/04 14:11:13;;;;;;;1.88;0.85;;;;;;;;;;5134189;27;20068;-57
2021/11/04 14:13:53;;;;;;;1.17;0.73;;;;;;;;;;5133684;27;20023;-59
2021/11/04 14:16:20;;;;;;;1.65;1.00;;;;;;;;;;5134549;27;20023;-58
2021/11/04 14:18:46;;;;;;;0.75;0.60;;;;;;;;;;5133413;27;20452;-57
2021/11/04 14:21:12;;;;;;;0.50;0.50;;;;;;;;;;5133220;27;20042;-57
2021/11/04 14:23:38;;;;;;;1.38;0.85;;;;;;;;;;5112914;28;20034;-57
2021/11/04 14:26:04;;;;;;;0.98;0.70;;;;;;;;;;5113440;28;20033;-56
2021/11/04 14:28:30;;;;;;;0.63;0.50;;;;;;;;;;5113905;28;20027;-57
2021/11/04 14:30:56;;;;;;;0.68;0.55;;;;;;;;;;5112968;28;20073;-57
2021/11/04 14:33:22;;;;;;;1.48;0.80;;;;;;;;;;5113115;28;20047;-57
2021/11/04 14:35:48;;;;;;;0.50;0.45;;;;;;;;;;5112767;28;20039;-58
2021/11/04 14:38:14;;;;;;;1.20;0.60;;;;;;;;;;5113385;28;20019;-58
2021/11/04 14:40:40;;;;;;;0.90;0.73;;;;;;;;;;5112652;28;20019;-59
2021/11/04 14:43:06;;;;;;;1.35;0.70;;;;;;;;;;5113181;28;20081;-58
2021/11/04 14:45:32;;;;;;;1.50;0.80;;;;;;;;;;5113256;28;20024;-57